createdAt,value
2018-06-30T16:15:14.820Z,20.50
2018-06-30T16:17:43.405Z,24.10
2018-06-30T16:20:11.734Z,24.10
2018-06-30T16:22:40.560Z,24.10
2018-06-30T16:25:09.079Z,24.20
2018-06-30T16:27:37.900Z,24.10
2018-06-30T16:30:07.179Z,24.00
2018-06-30T16:32:35.976Z,24.00
2018-06-30T16:35:04.521Z,23.90
2018-06-30T16:37:33.332Z,24.00
2018-06-30T16:40:02.943Z,23.90
2018-06-30T16:42:31.169Z,23.90
2018-06-30T16:44:59.634Z,23.70
2018-06-30T16:47:28.132Z,23.60
2018-06-30T16:49:56.612Z,23.40
2018-06-30T16:52:25.442Z,23.30
2018-06-30T16:54:53.933Z,23.10
2018-06-30T16:57:22.408Z,22.90
2018-06-30T16:59:50.895Z,22.90
2018-06-30T17:02:19.556Z,23.00
2018-06-30T17:04:48.224Z,23.00
2018-06-30T17:07:17.373Z,22.80
2018-06-30T17:09:46.777Z,22.80
2018-06-30T17:12:15.595Z,22.80
2018-06-30T17:14:45.393Z,22.80
2018-06-30T17:17:13.929Z,22.70
2018-06-30T17:19:43.040Z,22.70
2018-06-30T17:22:11.633Z,22.70
2018-06-30T17:24:42.025Z,22.60
2018-06-30T17:27:11.185Z,22.30
2018-06-30T17:29:40.536Z,22.30
2018-06-30T17:32:09.381Z,22.30
2018-06-30T17:34:38.513Z,22.40
2018-06-30T17:37:07.333Z,22.40
2018-06-30T17:39:36.493Z,22.30
2018-06-30T17:42:05.005Z,22.30
2018-06-30T17:44:34.460Z,22.30
2018-06-30T17:47:04.334Z,22.30
2018-06-30T17:49:33.149Z,22.10
2018-06-30T17:52:01.675Z,21.90
2018-06-30T17:54:30.931Z,21.90
2018-06-30T17:56:59.756Z,21.80
2018-06-30T17:59:28.567Z,21.70
2018-06-30T18:01:57.408Z,21.80
2018-06-30T18:04:26.250Z,21.90
2018-06-30T18:06:55.245Z,22.00
2018-06-30T18:09:23.726Z,22.00
2018-06-30T18:11:52.217Z,22.00
2018-06-30T18:14:21.362Z,21.90
2018-06-30T18:16:49.890Z,21.70
2018-06-30T18:19:18.477Z,21.60
2018-06-30T18:21:46.974Z,21.60
2018-06-30T18:24:15.468Z,21.50
2018-06-30T19:48:46.757Z,21.40
2018-06-30T19:51:15.935Z,20.80
2018-06-30T19:53:45.088Z,20.80
2018-06-30T19:56:13.618Z,20.70
2018-06-30T19:58:42.293Z,20.60
2018-06-30T20:01:11.169Z,20.60
2018-06-30T20:06:08.442Z,20.50
2018-06-30T20:08:36.935Z,20.50
2018-06-30T20:11:05.440Z,20.50
2018-06-30T20:13:33.984Z,20.40
2018-06-30T20:16:02.541Z,20.30
2018-06-30T20:18:31.056Z,20.30
2018-06-30T20:21:00.028Z,20.20
2018-06-30T20:23:29.580Z,20.10
2018-06-30T20:25:58.696Z,20.00
2018-06-30T20:28:27.698Z,20.00
2018-06-30T20:30:57.670Z,20.00
2018-06-30T20:33:26.833Z,19.90
2018-06-30T20:35:57.326Z,19.90
2018-06-30T20:38:26.592Z,19.70
2018-06-30T20:40:56.587Z,19.70
2018-06-30T20:43:25.094Z,19.60
2018-06-30T20:48:22.177Z,19.50
2018-06-30T20:50:51.394Z,19.40
2018-06-30T20:53:20.660Z,19.20
2018-06-30T20:55:49.833Z,19.10
2018-06-30T20:58:18.820Z,19.10
2018-06-30T21:00:47.721Z,19.00
2018-06-30T21:03:16.530Z,19.10
2018-06-30T21:05:45.033Z,18.90
2018-06-30T21:08:13.655Z,18.80
2018-06-30T21:10:42.633Z,18.70
2018-06-30T21:13:11.137Z,18.70
2018-06-30T21:15:39.956Z,18.60
2018-06-30T21:18:10.602Z,18.60
2018-06-30T21:20:39.485Z,18.70
2018-06-30T21:23:07.988Z,18.60
2018-06-30T21:27:01.430Z,18.50
2018-06-30T21:29:30.665Z,18.40
2018-06-30T21:34:27.729Z,18.30
2018-06-30T21:36:56.882Z,18.30
2018-06-30T21:39:26.116Z,18.30
2018-06-30T21:41:55.267Z,18.20
2018-06-30T21:44:23.744Z,18.10
2018-06-30T21:46:52.558Z,18.10
2018-06-30T21:49:21.385Z,18.00
2018-06-30T21:51:50.213Z,18.10
2018-06-30T21:54:19.521Z,17.90
2018-06-30T21:56:48.637Z,18.00
2018-06-30T21:59:17.464Z,17.90
2018-06-30T22:01:46.909Z,17.80
2018-06-30T22:04:15.775Z,17.70
2018-06-30T22:06:44.606Z,17.70
2018-06-30T22:09:13.426Z,17.60
2018-06-30T22:11:42.789Z,17.60
2018-06-30T22:14:11.609Z,17.60
2018-06-30T22:16:40.440Z,17.70
2018-06-30T22:19:08.918Z,17.70
2018-06-30T22:21:38.095Z,17.60
2018-06-30T22:24:06.924Z,17.60
2018-06-30T22:26:35.652Z,17.40
2018-06-30T22:29:04.158Z,17.40
2018-06-30T22:31:33.049Z,17.40
2018-06-30T22:34:01.517Z,17.20
2018-06-30T22:36:30.320Z,17.20
2018-06-30T22:38:58.828Z,17.20
2018-06-30T22:41:28.369Z,17.00
2018-06-30T22:43:57.191Z,17.00
2018-06-30T22:46:26.388Z,16.80
2018-06-30T22:48:55.218Z,16.70
2018-06-30T22:51:24.420Z,16.60
2018-06-30T22:53:53.309Z,16.60
2018-06-30T22:56:21.796Z,16.50
2018-06-30T22:58:50.960Z,16.60
2018-06-30T23:01:19.820Z,16.60
2018-06-30T23:03:48.321Z,16.50
2018-06-30T23:06:16.798Z,16.50
2018-06-30T23:08:51.081Z,16.60
2018-06-30T23:11:19.935Z,16.50
2018-06-30T23:13:48.753Z,16.40
2018-06-30T23:16:17.561Z,16.40
2018-06-30T23:18:47.945Z,16.40
2018-06-30T23:21:16.433Z,16.30
2018-06-30T23:23:45.608Z,16.30
2018-06-30T23:26:14.445Z,16.30
2018-06-30T23:28:43.317Z,16.30
2018-06-30T23:31:12.461Z,16.30
2018-06-30T23:33:41.290Z,16.40
2018-06-30T23:38:38.421Z,16.30
2018-06-30T23:41:06.918Z,16.40
2018-06-30T23:43:35.732Z,16.30
2018-06-30T23:46:04.325Z,16.30
2018-06-30T23:48:33.144Z,16.20
2018-06-30T23:51:01.676Z,16.10
2018-06-30T23:53:30.501Z,16.10
2018-06-30T23:55:58.961Z,15.90
2018-06-30T23:58:27.441Z,15.90
